sensor_id;sensor_type;location;lat;lon;timestamp;P1;durP1;ratioP1;P2;durP2;ratioP2
29320;SDS011;16323;51.130;6.612;2023-05-08T00:01:00;1.08;;;0.93;;
29320;SDS011;16323;51.130;6.612;2023-05-08T00:03:27;1.15;;;1.00;;
29320;SDS011;16323;51.130;6.612;2023-05-08T00:05:54;1.67;;;1.25;;
29320;SDS011;16323;51.130;6.612;2023-05-08T00:08:22;0.90;;;0.88;;
29320;SDS011;16323;51.130;6.612;2023-05-08T00:10:49;1.60;;;1.20;;
29320;SDS011;16323;51.130;6.612;2023-05-08T00:13:16;2.25;;;1.10;;
29320;SDS011;16323;51.130;6.612;2023-05-08T00:15:42;1.73;;;1.10;;
29320;SDS011;16323;51.130;6.612;2023-05-08T00:18:09;1.40;;;1.20;;
29320;SDS011;16323;51.130;6.612;2023-05-08T00:20:36;1.63;;;1.17;;
29320;SDS011;16323;51.130;6.612;2023-05-08T00:23:03;1.60;;;1.20;;
29320;SDS011;16323;51.130;6.612;2023-05-08T00:25:31;2.33;;;1.40;;
29320;SDS011;16323;51.130;6.612;2023-05-08T00:27:58;1.70;;;1.20;;
29320;SDS011;16323;51.130;6.612;2023-05-08T00:30:25;2.28;;;1.25;;
29320;SDS011;16323;51.130;6.612;2023-05-08T00:32:52;1.60;;;1.17;;
29320;SDS011;16323;51.130;6.612;2023-05-08T00:35:19;2.50;;;1.48;;
29320;SDS011;16323;51.130;6.612;2023-05-08T00:37:46;1.20;;;1.10;;
29320;SDS011;16323;51.130;6.612;2023-05-08T00:40:13;1.33;;;1.10;;
29320;SDS011;16323;51.130;6.612;2023-05-08T00:42:41;1.70;;;1.20;;
29320;SDS011;16323;51.130;6.612;2023-05-08T00:45:08;1.23;;;1.05;;
29320;SDS011;16323;51.130;6.612;2023-05-08T00:47:36;2.75;;;1.50;;
29320;SDS011;16323;51.130;6.612;2023-05-08T00:50:04;1.55;;;1.15;;
29320;SDS011;16323;51.130;6.612;2023-05-08T00:52:31;2.03;;;1.50;;
29320;SDS011;16323;51.130;6.612;2023-05-08T00:54:59;2.17;;;1.33;;
29320;SDS011;16323;51.130;6.612;2023-05-08T00:57:26;1.75;;;1.10;;
29320;SDS011;16323;51.130;6.612;2023-05-08T00:59:56;1.83;;;1.10;;
29320;SDS011;16323;51.130;6.612;2023-05-08T01:02:25;1.48;;;1.38;;
29320;SDS011;16323;51.130;6.612;2023-05-08T01:04:55;1.33;;;1.20;;
29320;SDS011;16323;51.130;6.612;2023-05-08T01:07:22;2.72;;;1.30;;
29320;SDS011;16323;51.130;6.612;2023-05-08T01:09:48;1.88;;;1.40;;
29320;SDS011;16323;51.130;6.612;2023-05-08T01:12:16;1.67;;;1.35;;
29320;SDS011;16323;51.130;6.612;2023-05-08T01:14:50;2.22;;;1.50;;
29320;SDS011;16323;51.130;6.612;2023-05-08T01:17:29;1.83;;;1.17;;
29320;SDS011;16323;51.130;6.612;2023-05-08T01:20:07;2.05;;;1.50;;
29320;SDS011;16323;51.130;6.612;2023-05-08T01:22:53;2.50;;;1.25;;
29320;SDS011;16323;51.130;6.612;2023-05-08T01:25:42;1.50;;;1.10;;
29320;SDS011;16323;51.130;6.612;2023-05-08T01:28:34;1.50;;;1.15;;
29320;SDS011;16323;51.130;6.612;2023-05-08T01:31:13;2.08;;;1.40;;
29320;SDS011;16323;51.130;6.612;2023-05-08T01:33:46;1.65;;;1.20;;
29320;SDS011;16323;51.130;6.612;2023-05-08T01:36:23;1.30;;;1.17;;
29320;SDS011;16323;51.130;6.612;2023-05-08T01:38:58;1.92;;;1.27;;
29320;SDS011;16323;51.130;6.612;2023-05-08T01:41:32;2.33;;;1.60;;
29320;SDS011;16323;51.130;6.612;2023-05-08T01:44:05;2.22;;;1.60;;
29320;SDS011;16323;51.130;6.612;2023-05-08T01:46:38;2.15;;;1.48;;
29320;SDS011;16323;51.130;6.612;2023-05-08T01:49:07;2.17;;;1.50;;
29320;SDS011;16323;51.130;6.612;2023-05-08T01:51:37;2.47;;;1.80;;
29320;SDS011;16323;51.130;6.612;2023-05-08T01:54:08;1.73;;;1.50;;
29320;SDS011;16323;51.130;6.612;2023-05-08T01:56:37;2.33;;;1.80;;
29320;SDS011;16323;51.130;6.612;2023-05-08T01:59:07;1.88;;;1.60;;
29320;SDS011;16323;51.130;6.612;2023-05-08T02:01:38;2.15;;;1.60;;
29320;SDS011;16323;51.130;6.612;2023-05-08T02:04:08;2.60;;;1.42;;
29320;SDS011;16323;51.130;6.612;2023-05-08T02:06:36;2.70;;;1.65;;
29320;SDS011;16323;51.130;6.612;2023-05-08T02:09:05;1.58;;;1.40;;
29320;SDS011;16323;51.130;6.612;2023-05-08T02:11:34;2.17;;;1.40;;
29320;SDS011;16323;51.130;6.612;2023-05-08T02:14:02;2.15;;;1.50;;
29320;SDS011;16323;51.130;6.612;2023-05-08T02:16:30;1.73;;;1.13;;
29320;SDS011;16323;51.130;6.612;2023-05-08T02:18:59;2.40;;;1.42;;
29320;SDS011;16323;51.130;6.612;2023-05-08T02:21:29;1.15;;;1.05;;
29320;SDS011;16323;51.130;6.612;2023-05-08T02:23:56;1.35;;;1.25;;
29320;SDS011;16323;51.130;6.612;2023-05-08T02:26:25;1.20;;;1.10;;
29320;SDS011;16323;51.130;6.612;2023-05-08T02:28:53;2.08;;;1.52;;
29320;SDS011;16323;51.130;6.612;2023-05-08T02:31:21;2.13;;;1.40;;
29320;SDS011;16323;51.130;6.612;2023-05-08T02:33:49;3.78;;;1.50;;
29320;SDS011;16323;51.130;6.612;2023-05-08T02:36:18;2.08;;;1.55;;
29320;SDS011;16323;51.130;6.612;2023-05-08T02:38:49;2.28;;;1.65;;
29320;SDS011;16323;51.130;6.612;2023-05-08T02:41:18;1.83;;;1.60;;
29320;SDS011;16323;51.130;6.612;2023-05-08T02:43:47;2.38;;;1.40;;
29320;SDS011;16323;51.130;6.612;2023-05-08T02:46:14;1.20;;;1.10;;
29320;SDS011;16323;51.130;6.612;2023-05-08T02:48:46;2.53;;;1.48;;
29320;SDS011;16323;51.130;6.612;2023-05-08T02:51:22;1.30;;;1.20;;
29320;SDS011;16323;51.130;6.612;2023-05-08T02:53:57;1.35;;;1.25;;
29320;SDS011;16323;51.130;6.612;2023-05-08T02:56:30;2.08;;;1.25;;
29320;SDS011;16323;51.130;6.612;2023-05-08T02:59:05;1.50;;;1.23;;
29320;SDS011;16323;51.130;6.612;2023-05-08T03:01:41;1.27;;;1.10;;
29320;SDS011;16323;51.130;6.612;2023-05-08T03:04:14;1.33;;;1.10;;
29320;SDS011;16323;51.130;6.612;2023-05-08T03:06:47;1.67;;;1.35;;
29320;SDS011;16323;51.130;6.612;2023-05-08T03:09:17;1.55;;;1.20;;
29320;SDS011;16323;51.130;6.612;2023-05-08T03:11:47;1.75;;;1.30;;
29320;SDS011;16323;51.130;6.612;2023-05-08T03:14:19;1.30;;;1.00;;
29320;SDS011;16323;51.130;6.612;2023-05-08T03:16:49;1.77;;;1.25;;
29320;SDS011;16323;51.130;6.612;2023-05-08T03:19:21;2.35;;;1.45;;
29320;SDS011;16323;51.130;6.612;2023-05-08T03:21:52;1.50;;;1.33;;
29320;SDS011;16323;51.130;6.612;2023-05-08T03:24:22;2.67;;;1.35;;
29320;SDS011;16323;51.130;6.612;2023-05-08T03:26:50;1.98;;;1.55;;
29320;SDS011;16323;51.130;6.612;2023-05-08T03:29:17;1.20;;;1.10;;
29320;SDS011;16323;51.130;6.612;2023-05-08T03:31:45;1.48;;;1.23;;
29320;SDS011;16323;51.130;6.612;2023-05-08T03:34:13;1.38;;;1.27;;
29320;SDS011;16323;51.130;6.612;2023-05-08T03:36:42;1.88;;;1.30;;
29320;SDS011;16323;51.130;6.612;2023-05-08T03:39:09;1.90;;;1.40;;
29320;SDS011;16323;51.130;6.612;2023-05-08T03:41:38;2.03;;;1.35;;
29320;SDS011;16323;51.130;6.612;2023-05-08T03:44:04;1.92;;;1.23;;
29320;SDS011;16323;51.130;6.612;2023-05-08T03:46:32;1.42;;;1.20;;
29320;SDS011;16323;51.130;6.612;2023-05-08T03:49:01;1.40;;;1.20;;
29320;SDS011;16323;51.130;6.612;2023-05-08T03:51:30;1.20;;;1.10;;
29320;SDS011;16323;51.130;6.612;2023-05-08T03:53:57;1.45;;;1.35;;
29320;SDS011;16323;51.130;6.612;2023-05-08T03:56:24;2.42;;;1.30;;
29320;SDS011;16323;51.130;6.612;2023-05-08T03:58:53;1.10;;;1.00;;
29320;SDS011;16323;51.130;6.612;2023-05-08T04:01:27;1.27;;;1.15;;
29320;SDS011;16323;51.130;6.612;2023-05-08T04:04:05;1.25;;;1.05;;
29320;SDS011;16323;51.130;6.612;2023-05-08T04:06:36;1.77;;;1.40;;
29320;SDS011;16323;51.130;6.612;2023-05-08T04:09:12;1.50;;;1.17;;
29320;SDS011;16323;51.130;6.612;2023-05-08T04:11:50;1.55;;;1.40;;
29320;SDS011;16323;51.130;6.612;2023-05-08T04:14:26;1.20;;;1.10;;
29320;SDS011;16323;51.130;6.612;2023-05-08T04:17:00;1.85;;;1.23;;
29320;SDS011;16323;51.130;6.612;2023-05-08T04:19:28;1.25;;;1.08;;
29320;SDS011;16323;51.130;6.612;2023-05-08T04:22:04;1.50;;;1.20;;
29320;SDS011;16323;51.130;6.612;2023-05-08T04:24:33;1.52;;;1.42;;
29320;SDS011;16323;51.130;6.612;2023-05-08T04:27:02;1.88;;;1.20;;
29320;SDS011;16323;51.130;6.612;2023-05-08T04:29:31;2.28;;;1.20;;
29320;SDS011;16323;51.130;6.612;2023-05-08T04:31:58;1.67;;;1.17;;
29320;SDS011;16323;51.130;6.612;2023-05-08T04:34:26;1.63;;;1.05;;
29320;SDS011;16323;51.130;6.612;2023-05-08T04:36:54;1.10;;;1.00;;
29320;SDS011;16323;51.130;6.612;2023-05-08T04:39:21;1.98;;;1.45;;
29320;SDS011;16323;51.130;6.612;2023-05-08T04:41:47;1.27;;;1.17;;
29320;SDS011;16323;51.130;6.612;2023-05-08T04:44:16;2.60;;;1.10;;
29320;SDS011;16323;51.130;6.612;2023-05-08T04:46:44;1.48;;;1.10;;
29320;SDS011;16323;51.130;6.612;2023-05-08T04:49:11;1.20;;;1.10;;
29320;SDS011;16323;51.130;6.612;2023-05-08T04:51:38;1.10;;;1.00;;
29320;SDS011;16323;51.130;6.612;2023-05-08T04:54:04;1.63;;;1.02;;
29320;SDS011;16323;51.130;6.612;2023-05-08T04:56:31;1.40;;;1.10;;
29320;SDS011;16323;51.130;6.612;2023-05-08T04:58:58;1.20;;;1.00;;
29320;SDS011;16323;51.130;6.612;2023-05-08T05:01:24;1.40;;;1.20;;
29320;SDS011;16323;51.130;6.612;2023-05-08T05:03:53;1.52;;;1.30;;
29320;SDS011;16323;51.130;6.612;2023-05-08T05:06:19;1.27;;;1.10;;
29320;SDS011;16323;51.130;6.612;2023-05-08T05:08:46;1.10;;;0.93;;
29320;SDS011;16323;51.130;6.612;2023-05-08T05:11:13;1.20;;;1.00;;
29320;SDS011;16323;51.130;6.612;2023-05-08T05:13:40;1.30;;;1.00;;
29320;SDS011;16323;51.130;6.612;2023-05-08T05:16:06;1.10;;;0.90;;
29320;SDS011;16323;51.130;6.612;2023-05-08T05:18:33;1.20;;;1.10;;
29320;SDS011;16323;51.130;6.612;2023-05-08T05:21:01;1.02;;;0.90;;
29320;SDS011;16323;51.130;6.612;2023-05-08T05:23:28;1.27;;;1.10;;
29320;SDS011;16323;51.130;6.612;2023-05-08T05:25:55;1.52;;;1.17;;
29320;SDS011;16323;51.130;6.612;2023-05-08T05:28:21;1.73;;;1.42;;
29320;SDS011;16323;51.130;6.612;2023-05-08T05:30:48;1.55;;;1.25;;
29320;SDS011;16323;51.130;6.612;2023-05-08T05:33:15;1.15;;;1.00;;
29320;SDS011;16323;51.130;6.612;2023-05-08T05:35:42;1.50;;;1.20;;
29320;SDS011;16323;51.130;6.612;2023-05-08T05:38:10;1.83;;;1.20;;
29320;SDS011;16323;51.130;6.612;2023-05-08T05:40:37;1.83;;;1.08;;
29320;SDS011;16323;51.130;6.612;2023-05-08T05:43:03;1.65;;;1.00;;
29320;SDS011;16323;51.130;6.612;2023-05-08T05:45:30;1.35;;;1.25;;
29320;SDS011;16323;51.130;6.612;2023-05-08T05:47:57;1.05;;;0.90;;
29320;SDS011;16323;51.130;6.612;2023-05-08T05:50:24;1.20;;;1.02;;
29320;SDS011;16323;51.130;6.612;2023-05-08T05:52:51;1.40;;;1.20;;
29320;SDS011;16323;51.130;6.612;2023-05-08T05:55:19;1.27;;;1.10;;
29320;SDS011;16323;51.130;6.612;2023-05-08T05:57:47;1.30;;;1.20;;
29320;SDS011;16323;51.130;6.612;2023-05-08T06:00:15;2.05;;;1.40;;
29320;SDS011;16323;51.130;6.612;2023-05-08T06:02:42;1.30;;;1.10;;
29320;SDS011;16323;51.130;6.612;2023-05-08T06:05:09;1.40;;;1.17;;
29320;SDS011;16323;51.130;6.612;2023-05-08T06:07:36;2.17;;;1.40;;
29320;SDS011;16323;51.130;6.612;2023-05-08T06:10:04;1.40;;;1.23;;
29320;SDS011;16323;51.130;6.612;2023-05-08T06:12:33;1.67;;;1.55;;
29320;SDS011;16323;51.130;6.612;2023-05-08T06:15:00;1.45;;;1.35;;
29320;SDS011;16323;51.130;6.612;2023-05-08T06:17:27;1.55;;;1.35;;
29320;SDS011;16323;51.130;6.612;2023-05-08T06:19:53;1.52;;;1.20;;
29320;SDS011;16323;51.130;6.612;2023-05-08T06:22:20;1.48;;;1.38;;
29320;SDS011;16323;51.130;6.612;2023-05-08T06:24:48;1.98;;;1.58;;
29320;SDS011;16323;51.130;6.612;2023-05-08T06:27:17;2.17;;;1.58;;
29320;SDS011;16323;51.130;6.612;2023-05-08T06:29:46;2.58;;;1.52;;
29320;SDS011;16323;51.130;6.612;2023-05-08T06:32:15;1.60;;;1.35;;
29320;SDS011;16323;51.130;6.612;2023-05-08T06:34:42;2.10;;;1.33;;
29320;SDS011;16323;51.130;6.612;2023-05-08T06:37:09;1.73;;;1.45;;
29320;SDS011;16323;51.130;6.612;2023-05-08T06:39:36;2.33;;;1.40;;
29320;SDS011;16323;51.130;6.612;2023-05-08T06:42:02;1.40;;;1.30;;
29320;SDS011;16323;51.130;6.612;2023-05-08T06:44:30;2.08;;;1.52;;
29320;SDS011;16323;51.130;6.612;2023-05-08T06:46:58;1.90;;;1.52;;
29320;SDS011;16323;51.130;6.612;2023-05-08T06:49:25;2.47;;;1.75;;
29320;SDS011;16323;51.130;6.612;2023-05-08T06:51:52;2.25;;;1.80;;
29320;SDS011;16323;51.130;6.612;2023-05-08T06:54:19;2.40;;;1.95;;
29320;SDS011;16323;51.130;6.612;2023-05-08T06:56:46;2.10;;;1.80;;
29320;SDS011;16323;51.130;6.612;2023-05-08T06:59:13;2.50;;;1.80;;
29320;SDS011;16323;51.130;6.612;2023-05-08T07:01:39;2.40;;;1.80;;
29320;SDS011;16323;51.130;6.612;2023-05-08T07:04:08;3.85;;;1.83;;
29320;SDS011;16323;51.130;6.612;2023-05-08T07:06:34;2.78;;;1.98;;
29320;SDS011;16323;51.130;6.612;2023-05-08T07:09:01;2.78;;;2.25;;
29320;SDS011;16323;51.130;6.612;2023-05-08T07:11:28;2.88;;;2.25;;
29320;SDS011;16323;51.130;6.612;2023-05-08T07:13:55;2.60;;;2.15;;
29320;SDS011;16323;51.130;6.612;2023-05-08T07:16:21;2.97;;;2.42;;
29320;SDS011;16323;51.130;6.612;2023-05-08T07:18:48;3.20;;;2.35;;
29320;SDS011;16323;51.130;6.612;2023-05-08T07:21:17;2.90;;;2.30;;
29320;SDS011;16323;51.130;6.612;2023-05-08T07:23:45;2.72;;;2.00;;
29320;SDS011;16323;51.130;6.612;2023-05-08T07:26:15;3.25;;;2.42;;
29320;SDS011;16323;51.130;6.612;2023-05-08T07:28:42;3.80;;;2.47;;
29320;SDS011;16323;51.130;6.612;2023-05-08T07:31:09;3.58;;;2.20;;
29320;SDS011;16323;51.130;6.612;2023-05-08T07:33:36;2.65;;;2.17;;
29320;SDS011;16323;51.130;6.612;2023-05-08T07:36:03;3.78;;;2.80;;
29320;SDS011;16323;51.130;6.612;2023-05-08T07:38:31;3.28;;;2.95;;
29320;SDS011;16323;51.130;6.612;2023-05-08T07:40:58;4.88;;;2.88;;
29320;SDS011;16323;51.130;6.612;2023-05-08T07:43:26;3.30;;;2.67;;
29320;SDS011;16323;51.130;6.612;2023-05-08T07:45:52;3.33;;;2.63;;
29320;SDS011;16323;51.130;6.612;2023-05-08T07:48:19;3.28;;;2.47;;
29320;SDS011;16323;51.130;6.612;2023-05-08T07:50:47;3.67;;;2.88;;
29320;SDS011;16323;51.130;6.612;2023-05-08T07:53:14;3.58;;;2.85;;
29320;SDS011;16323;51.130;6.612;2023-05-08T07:55:42;3.65;;;2.88;;
29320;SDS011;16323;51.130;6.612;2023-05-08T07:58:09;3.38;;;2.72;;
29320;SDS011;16323;51.130;6.612;2023-05-08T08:00:36;3.22;;;2.80;;
29320;SDS011;16323;51.130;6.612;2023-05-08T08:03:03;3.20;;;2.63;;
29320;SDS011;16323;51.130;6.612;2023-05-08T08:05:31;3.38;;;2.50;;
29320;SDS011;16323;51.130;6.612;2023-05-08T08:07:57;3.03;;;2.63;;
29320;SDS011;16323;51.130;6.612;2023-05-08T08:10:24;2.50;;;2.20;;
29320;SDS011;16323;51.130;6.612;2023-05-08T08:12:52;3.28;;;2.35;;
29320;SDS011;16323;51.130;6.612;2023-05-08T08:15:19;3.63;;;2.88;;
29320;SDS011;16323;51.130;6.612;2023-05-08T08:17:46;3.42;;;2.50;;
29320;SDS011;16323;51.130;6.612;2023-05-08T08:20:13;3.67;;;2.58;;
29320;SDS011;16323;51.130;6.612;2023-05-08T08:22:40;3.05;;;2.63;;
29320;SDS011;16323;51.130;6.612;2023-05-08T08:25:07;3.58;;;2.70;;
29320;SDS011;16323;51.130;6.612;2023-05-08T08:27:34;3.47;;;2.75;;
29320;SDS011;16323;51.130;6.612;2023-05-08T08:30:02;4.47;;;3.00;;
29320;SDS011;16323;51.130;6.612;2023-05-08T08:32:29;4.13;;;3.00;;
29320;SDS011;16323;51.130;6.612;2023-05-08T08:34:56;4.40;;;2.63;;
29320;SDS011;16323;51.130;6.612;2023-05-08T08:37:23;3.15;;;2.80;;
29320;SDS011;16323;51.130;6.612;2023-05-08T08:39:50;3.58;;;3.08;;
29320;SDS011;16323;51.130;6.612;2023-05-08T08:42:17;3.60;;;3.10;;
29320;SDS011;16323;51.130;6.612;2023-05-08T08:44:44;3.33;;;2.75;;
29320;SDS011;16323;51.130;6.612;2023-05-08T08:47:12;3.33;;;2.95;;
29320;SDS011;16323;51.130;6.612;2023-05-08T08:49:46;3.30;;;2.85;;
29320;SDS011;16323;51.130;6.612;2023-05-08T08:52:20;3.20;;;2.85;;
29320;SDS011;16323;51.130;6.612;2023-05-08T08:54:55;4.93;;;2.88;;
29320;SDS011;16323;51.130;6.612;2023-05-08T08:57:25;4.32;;;3.03;;
29320;SDS011;16323;51.130;6.612;2023-05-08T08:59:53;3.55;;;2.78;;
29320;SDS011;16323;51.130;6.612;2023-05-08T09:02:24;3.42;;;2.78;;
29320;SDS011;16323;51.130;6.612;2023-05-08T09:04:52;3.60;;;3.00;;
29320;SDS011;16323;51.130;6.612;2023-05-08T09:07:19;4.18;;;2.83;;
29320;SDS011;16323;51.130;6.612;2023-05-08T09:09:46;4.15;;;2.72;;
29320;SDS011;16323;51.130;6.612;2023-05-08T09:12:13;3.83;;;3.13;;
29320;SDS011;16323;51.130;6.612;2023-05-08T09:14:40;3.95;;;2.67;;
29320;SDS011;16323;51.130;6.612;2023-05-08T09:17:07;3.65;;;3.28;;
29320;SDS011;16323;51.130;6.612;2023-05-08T09:19:36;3.50;;;3.00;;
29320;SDS011;16323;51.130;6.612;2023-05-08T09:22:03;3.90;;;3.00;;
29320;SDS011;16323;51.130;6.612;2023-05-08T09:27:23;3.78;;;2.67;;
29320;SDS011;16323;51.130;6.612;2023-05-08T09:29:57;3.00;;;2.70;;
29320;SDS011;16323;51.130;6.612;2023-05-08T09:32:26;3.20;;;2.90;;
29320;SDS011;16323;51.130;6.612;2023-05-08T09:34:54;3.05;;;2.65;;
29320;SDS011;16323;51.130;6.612;2023-05-08T09:37:21;2.55;;;2.28;;
29320;SDS011;16323;51.130;6.612;2023-05-08T09:39:48;3.60;;;3.05;;
29320;SDS011;16323;51.130;6.612;2023-05-08T09:42:14;3.13;;;2.45;;
29320;SDS011;16323;51.130;6.612;2023-05-08T09:44:45;4.45;;;2.60;;
29320;SDS011;16323;51.130;6.612;2023-05-08T09:47:14;3.33;;;2.78;;
29320;SDS011;16323;51.130;6.612;2023-05-08T09:49:56;3.17;;;2.60;;
29320;SDS011;16323;51.130;6.612;2023-05-08T09:52:23;3.08;;;2.50;;
29320;SDS011;16323;51.130;6.612;2023-05-08T09:54:55;3.03;;;2.72;;
29320;SDS011;16323;51.130;6.612;2023-05-08T09:57:23;3.20;;;2.47;;
29320;SDS011;16323;51.130;6.612;2023-05-08T09:59:50;3.42;;;2.53;;
29320;SDS011;16323;51.130;6.612;2023-05-08T10:02:16;2.92;;;2.22;;
29320;SDS011;16323;51.130;6.612;2023-05-08T10:04:45;2.67;;;2.47;;
29320;SDS011;16323;51.130;6.612;2023-05-08T10:07:13;2.92;;;2.60;;
29320;SDS011;16323;51.130;6.612;2023-05-08T10:09:40;2.90;;;2.20;;
29320;SDS011;16323;51.130;6.612;2023-05-08T10:12:23;3.25;;;2.38;;
29320;SDS011;16323;51.130;6.612;2023-05-08T10:14:50;2.63;;;2.40;;
29320;SDS011;16323;51.130;6.612;2023-05-08T10:17:19;2.53;;;2.15;;
29320;SDS011;16323;51.130;6.612;2023-05-08T10:19:50;2.17;;;1.90;;
29320;SDS011;16323;51.130;6.612;2023-05-08T10:22:24;2.25;;;2.05;;
29320;SDS011;16323;51.130;6.612;2023-05-08T10:24:52;2.40;;;2.20;;
29320;SDS011;16323;51.130;6.612;2023-05-08T10:27:26;2.42;;;2.10;;
29320;SDS011;16323;51.130;6.612;2023-05-08T10:29:57;3.05;;;2.15;;
29320;SDS011;16323;51.130;6.612;2023-05-08T10:32:28;1.95;;;1.73;;
29320;SDS011;16323;51.130;6.612;2023-05-08T10:35:00;2.72;;;1.85;;
29320;SDS011;16323;51.130;6.612;2023-05-08T10:37:30;2.17;;;1.90;;
29320;SDS011;16323;51.130;6.612;2023-05-08T10:40:01;2.25;;;2.03;;
29320;SDS011;16323;51.130;6.612;2023-05-08T10:42:29;2.03;;;1.80;;
29320;SDS011;16323;51.130;6.612;2023-05-08T10:44:56;1.88;;;1.75;;
29320;SDS011;16323;51.130;6.612;2023-05-08T10:47:24;2.17;;;1.90;;
29320;SDS011;16323;51.130;6.612;2023-05-08T10:49:59;2.42;;;1.85;;
29320;SDS011;16323;51.130;6.612;2023-05-08T10:52:33;1.63;;;1.52;;
29320;SDS011;16323;51.130;6.612;2023-05-08T10:58:00;1.63;;;1.50;;
29320;SDS011;16323;51.130;6.612;2023-05-08T11:00:30;1.70;;;1.60;;
29320;SDS011;16323;51.130;6.612;2023-05-08T11:03:07;2.67;;;1.75;;
29320;SDS011;16323;51.130;6.612;2023-05-08T11:05:43;2.78;;;1.77;;
29320;SDS011;16323;51.130;6.612;2023-05-08T11:08:14;1.85;;;1.60;;
29320;SDS011;16323;51.130;6.612;2023-05-08T11:10:42;1.70;;;1.60;;
29320;SDS011;16323;51.130;6.612;2023-05-08T11:13:12;2.03;;;1.83;;
29320;SDS011;16323;51.130;6.612;2023-05-08T11:15:40;1.50;;;1.40;;
29320;SDS011;16323;51.130;6.612;2023-05-08T11:18:07;1.40;;;1.30;;
29320;SDS011;16323;51.130;6.612;2023-05-08T11:20:38;1.42;;;1.30;;
29320;SDS011;16323;51.130;6.612;2023-05-08T11:23:23;1.50;;;1.40;;
29320;SDS011;16323;51.130;6.612;2023-05-08T11:25:58;1.80;;;1.70;;
29320;SDS011;16323;51.130;6.612;2023-05-08T11:28:26;2.00;;;1.50;;
29320;SDS011;16323;51.130;6.612;2023-05-08T11:30:53;1.90;;;1.67;;
29320;SDS011;16323;51.130;6.612;2023-05-08T11:33:21;1.58;;;1.42;;
29320;SDS011;16323;51.130;6.612;2023-05-08T11:35:52;2.03;;;1.27;;
29320;SDS011;16323;51.130;6.612;2023-05-08T11:38:26;1.30;;;1.20;;
29320;SDS011;16323;51.130;6.612;2023-05-08T11:40:56;1.50;;;1.38;;
29320;SDS011;16323;51.130;6.612;2023-05-08T11:43:31;1.88;;;1.38;;
29320;SDS011;16323;51.130;6.612;2023-05-08T11:46:13;1.60;;;1.20;;
29320;SDS011;16323;51.130;6.612;2023-05-08T11:48:41;1.50;;;1.30;;
29320;SDS011;16323;51.130;6.612;2023-05-08T11:51:08;1.70;;;1.60;;
29320;SDS011;16323;51.130;6.612;2023-05-08T11:53:36;1.42;;;1.33;;
29320;SDS011;16323;51.130;6.612;2023-05-08T11:56:04;1.55;;;1.45;;
29320;SDS011;16323;51.130;6.612;2023-05-08T11:58:32;1.52;;;1.23;;
29320;SDS011;16323;51.130;6.612;2023-05-08T12:01:00;1.73;;;1.38;;
29320;SDS011;16323;51.130;6.612;2023-05-08T12:03:27;1.42;;;1.30;;
29320;SDS011;16323;51.130;6.612;2023-05-08T12:05:55;1.65;;;1.15;;
29320;SDS011;16323;51.130;6.612;2023-05-08T12:08:23;1.40;;;1.30;;
29320;SDS011;16323;51.130;6.612;2023-05-08T12:10:52;1.48;;;1.35;;
29320;SDS011;16323;51.130;6.612;2023-05-08T12:13:19;1.73;;;1.40;;
29320;SDS011;16323;51.130;6.612;2023-05-08T12:15:47;3.63;;;1.33;;
29320;SDS011;16323;51.130;6.612;2023-05-08T12:18:17;1.45;;;1.27;;
29320;SDS011;16323;51.130;6.612;2023-05-08T12:20:44;1.58;;;1.27;;
29320;SDS011;16323;51.130;6.612;2023-05-08T12:23:11;1.50;;;1.20;;
29320;SDS011;16323;51.130;6.612;2023-05-08T12:25:38;1.55;;;1.20;;
29320;SDS011;16323;51.130;6.612;2023-05-08T12:28:07;1.23;;;1.10;;
29320;SDS011;16323;51.130;6.612;2023-05-08T12:30:34;1.42;;;1.20;;
29320;SDS011;16323;51.130;6.612;2023-05-08T12:33:02;1.13;;;1.02;;
29320;SDS011;16323;51.130;6.612;2023-05-08T12:35:30;1.40;;;1.20;;
29320;SDS011;16323;51.130;6.612;2023-05-08T12:37:59;1.30;;;1.20;;
29320;SDS011;16323;51.130;6.612;2023-05-08T12:40:27;1.33;;;1.23;;
29320;SDS011;16323;51.130;6.612;2023-05-08T12:42:55;1.48;;;1.17;;
29320;SDS011;16323;51.130;6.612;2023-05-08T12:45:25;1.98;;;1.30;;
29320;SDS011;16323;51.130;6.612;2023-05-08T12:47:53;1.30;;;1.10;;
29320;SDS011;16323;51.130;6.612;2023-05-08T12:50:24;1.77;;;1.40;;
29320;SDS011;16323;51.130;6.612;2023-05-08T12:52:50;1.73;;;1.35;;
29320;SDS011;16323;51.130;6.612;2023-05-08T12:55:21;1.40;;;1.20;;
29320;SDS011;16323;51.130;6.612;2023-05-08T12:57:49;1.13;;;1.02;;
29320;SDS011;16323;51.130;6.612;2023-05-08T13:00:25;1.52;;;1.42;;
29320;SDS011;16323;51.130;6.612;2023-05-08T13:03:00;1.20;;;1.10;;
29320;SDS011;16323;51.130;6.612;2023-05-08T13:05:26;1.27;;;1.17;;
29320;SDS011;16323;51.130;6.612;2023-05-08T13:07:57;1.75;;;1.35;;
29320;SDS011;16323;51.130;6.612;2023-05-08T13:10:25;1.35;;;1.20;;
29320;SDS011;16323;51.130;6.612;2023-05-08T13:13:07;0.88;;;0.88;;
29320;SDS011;16323;51.130;6.612;2023-05-08T13:15:35;1.20;;;1.10;;
29320;SDS011;16323;51.130;6.612;2023-05-08T13:18:02;1.27;;;1.10;;
29320;SDS011;16323;51.130;6.612;2023-05-08T13:20:31;1.40;;;1.25;;
29320;SDS011;16323;51.130;6.612;2023-05-08T13:22:58;1.23;;;1.05;;
29320;SDS011;16323;51.130;6.612;2023-05-08T13:25:24;1.30;;;1.20;;
29320;SDS011;16323;51.130;6.612;2023-05-08T13:27:51;1.52;;;1.08;;
29320;SDS011;16323;51.130;6.612;2023-05-08T13:30:18;1.58;;;1.20;;
29320;SDS011;16323;51.130;6.612;2023-05-08T13:32:47;1.25;;;1.15;;
29320;SDS011;16323;51.130;6.612;2023-05-08T13:35:14;1.30;;;1.20;;
29320;SDS011;16323;51.130;6.612;2023-05-08T13:37:41;1.60;;;1.27;;
29320;SDS011;16323;51.130;6.612;2023-05-08T13:40:08;1.13;;;1.02;;
29320;SDS011;16323;51.130;6.612;2023-05-08T13:42:35;1.10;;;1.00;;
29320;SDS011;16323;51.130;6.612;2023-05-08T13:45:02;1.08;;;0.98;;
29320;SDS011;16323;51.130;6.612;2023-05-08T13:47:29;1.13;;;1.02;;
29320;SDS011;16323;51.130;6.612;2023-05-08T13:49:57;1.23;;;1.00;;
29320;SDS011;16323;51.130;6.612;2023-05-08T13:52:24;1.15;;;1.05;;
29320;SDS011;16323;51.130;6.612;2023-05-08T13:54:53;1.10;;;1.00;;
29320;SDS011;16323;51.130;6.612;2023-05-08T13:57:20;1.13;;;1.00;;
29320;SDS011;16323;51.130;6.612;2023-05-08T13:59:47;1.05;;;0.95;;
29320;SDS011;16323;51.130;6.612;2023-05-08T14:02:13;1.38;;;1.08;;
29320;SDS011;16323;51.130;6.612;2023-05-08T14:04:40;0.80;;;0.80;;
29320;SDS011;16323;51.130;6.612;2023-05-08T14:07:08;0.82;;;0.80;;
29320;SDS011;16323;51.130;6.612;2023-05-08T14:09:35;1.10;;;0.73;;
29320;SDS011;16323;51.130;6.612;2023-05-08T14:12:02;0.63;;;0.63;;
29320;SDS011;16323;51.130;6.612;2023-05-08T14:14:29;0.80;;;0.77;;
29320;SDS011;16323;51.130;6.612;2023-05-08T14:16:56;1.27;;;1.08;;
29320;SDS011;16323;51.130;6.612;2023-05-08T14:19:23;0.77;;;0.75;;
29320;SDS011;16323;51.130;6.612;2023-05-08T14:21:50;0.85;;;0.85;;
29320;SDS011;16323;51.130;6.612;2023-05-08T14:24:18;1.02;;;0.73;;
29320;SDS011;16323;51.130;6.612;2023-05-08T14:26:45;1.15;;;0.95;;
29320;SDS011;16323;51.130;6.612;2023-05-08T14:29:11;1.23;;;0.98;;
29320;SDS011;16323;51.130;6.612;2023-05-08T14:31:38;1.20;;;1.10;;
29320;SDS011;16323;51.130;6.612;2023-05-08T14:34:05;1.00;;;0.90;;
29320;SDS011;16323;51.130;6.612;2023-05-08T14:36:32;1.02;;;0.93;;
29320;SDS011;16323;51.130;6.612;2023-05-08T14:38:58;1.27;;;0.95;;
29320;SDS011;16323;51.130;6.612;2023-05-08T14:41:27;0.90;;;0.90;;
29320;SDS011;16323;51.130;6.612;2023-05-08T14:43:55;1.00;;;0.90;;
29320;SDS011;16323;51.130;6.612;2023-05-08T14:46:22;1.02;;;0.95;;
29320;SDS011;16323;51.130;6.612;2023-05-08T14:48:49;0.73;;;0.73;;
29320;SDS011;16323;51.130;6.612;2023-05-08T14:51:16;0.90;;;0.80;;
29320;SDS011;16323;51.130;6.612;2023-05-08T14:53:43;1.05;;;0.80;;
29320;SDS011;16323;51.130;6.612;2023-05-08T14:56:10;1.00;;;0.90;;
29320;SDS011;16323;51.130;6.612;2023-05-08T14:58:39;0.85;;;0.80;;
29320;SDS011;16323;51.130;6.612;2023-05-08T15:01:05;0.80;;;0.80;;
29320;SDS011;16323;51.130;6.612;2023-05-08T15:03:32;1.02;;;0.93;;